sensor_id;sensor_type;location;lat;lon;timestamp;temperature;humidity
54832;DHT22;40730;53.068;6.572;2023-08-31T00:02:01;10.70;99.90
54832;DHT22;40730;53.068;6.572;2023-08-31T00:04:27;10.70;99.90
54832;DHT22;40730;53.068;6.572;2023-08-31T00:06:52;10.70;99.90
54832;DHT22;40730;53.068;6.572;2023-08-31T00:09:18;10.80;99.90
54832;DHT22;40730;53.068;6.572;2023-08-31T00:11:44;10.80;99.90
54832;DHT22;40730;53.068;6.572;2023-08-31T00:14:10;10.80;99.90
54832;DHT22;40730;53.068;6.572;2023-08-31T00:16:36;10.80;99.90
54832;DHT22;40730;53.068;6.572;2023-08-31T00:19:02;10.90;99.90
54832;DHT22;40730;53.068;6.572;2023-08-31T00:21:28;10.90;99.90
54832;DHT22;40730;53.068;6.572;2023-08-31T00:23:55;10.90;99.90
54832;DHT22;40730;53.068;6.572;2023-08-31T00:26:21;10.90;99.90
54832;DHT22;40730;53.068;6.572;2023-08-31T00:28:47;10.90;99.90
54832;DHT22;40730;53.068;6.572;2023-08-31T00:31:12;11.00;99.90
54832;DHT22;40730;53.068;6.572;2023-08-31T00:33:38;11.00;99.90
54832;DHT22;40730;53.068;6.572;2023-08-31T00:36:04;11.00;99.90
54832;DHT22;40730;53.068;6.572;2023-08-31T00:38:33;11.00;99.90
54832;DHT22;40730;53.068;6.572;2023-08-31T00:41:00;11.00;99.90
54832;DHT22;40730;53.068;6.572;2023-08-31T00:43:25;10.80;99.90
54832;DHT22;40730;53.068;6.572;2023-08-31T00:45:54;10.80;99.90
54832;DHT22;40730;53.068;6.572;2023-08-31T00:48:23;10.80;99.90
54832;DHT22;40730;53.068;6.572;2023-08-31T00:50:50;10.70;99.90
54832;DHT22;40730;53.068;6.572;2023-08-31T00:53:16;10.70;99.90
54832;DHT22;40730;53.068;6.572;2023-08-31T00:55:44;10.60;99.90
54832;DHT22;40730;53.068;6.572;2023-08-31T00:58:10;10.60;99.90
54832;DHT22;40730;53.068;6.572;2023-08-31T01:03:49;10.50;99.90
54832;DHT22;40730;53.068;6.572;2023-08-31T01:06:32;10.50;99.90
54832;DHT22;40730;53.068;6.572;2023-08-31T01:09:07;10.50;99.90
54832;DHT22;40730;53.068;6.572;2023-08-31T01:14:25;10.50;99.90
54832;DHT22;40730;53.068;6.572;2023-08-31T01:16:55;10.40;99.90
54832;DHT22;40730;53.068;6.572;2023-08-31T01:19:50;10.40;99.90
54832;DHT22;40730;53.068;6.572;2023-08-31T01:22:38;10.40;99.90
54832;DHT22;40730;53.068;6.572;2023-08-31T01:25:08;10.40;99.90
54832;DHT22;40730;53.068;6.572;2023-08-31T01:27:35;10.40;99.90
54832;DHT22;40730;53.068;6.572;2023-08-31T01:30:04;10.40;99.90
54832;DHT22;40730;53.068;6.572;2023-08-31T01:32:31;10.40;99.90
54832;DHT22;40730;53.068;6.572;2023-08-31T01:34:57;10.30;99.90
54832;DHT22;40730;53.068;6.572;2023-08-31T01:37:43;10.30;99.90
54832;DHT22;40730;53.068;6.572;2023-08-31T01:40:23;10.30;99.90
54832;DHT22;40730;53.068;6.572;2023-08-31T01:42:51;10.20;99.90
54832;DHT22;40730;53.068;6.572;2023-08-31T01:45:20;10.20;99.90
54832;DHT22;40730;53.068;6.572;2023-08-31T01:47:47;10.20;99.90
54832;DHT22;40730;53.068;6.572;2023-08-31T01:50:13;10.10;99.90
54832;DHT22;40730;53.068;6.572;2023-08-31T01:52:39;10.10;99.90
54832;DHT22;40730;53.068;6.572;2023-08-31T01:55:05;10.10;99.90
54832;DHT22;40730;53.068;6.572;2023-08-31T01:57:32;10.10;99.90
54832;DHT22;40730;53.068;6.572;2023-08-31T01:59:58;10.10;99.90
54832;DHT22;40730;53.068;6.572;2023-08-31T02:02:23;10.10;99.90
54832;DHT22;40730;53.068;6.572;2023-08-31T02:04:49;10.10;99.90
54832;DHT22;40730;53.068;6.572;2023-08-31T02:07:17;10.10;99.90
54832;DHT22;40730;53.068;6.572;2023-08-31T02:09:42;10.10;99.90
54832;DHT22;40730;53.068;6.572;2023-08-31T02:12:08;10.10;99.90
54832;DHT22;40730;53.068;6.572;2023-08-31T02:14:35;10.10;99.90
54832;DHT22;40730;53.068;6.572;2023-08-31T02:17:01;10.10;99.90
54832;DHT22;40730;53.068;6.572;2023-08-31T02:19:27;10.10;99.90
54832;DHT22;40730;53.068;6.572;2023-08-31T02:21:52;10.20;99.90
54832;DHT22;40730;53.068;6.572;2023-08-31T02:24:18;10.20;99.90
54832;DHT22;40730;53.068;6.572;2023-08-31T02:26:43;10.10;99.90
54832;DHT22;40730;53.068;6.572;2023-08-31T02:29:09;10.20;99.90
54832;DHT22;40730;53.068;6.572;2023-08-31T02:31:35;10.20;99.90
54832;DHT22;40730;53.068;6.572;2023-08-31T02:34:00;10.20;99.90
54832;DHT22;40730;53.068;6.572;2023-08-31T02:36:26;10.20;99.90
54832;DHT22;40730;53.068;6.572;2023-08-31T02:38:51;10.20;99.90
54832;DHT22;40730;53.068;6.572;2023-08-31T02:41:18;10.20;99.90
54832;DHT22;40730;53.068;6.572;2023-08-31T02:43:44;10.20;99.90
54832;DHT22;40730;53.068;6.572;2023-08-31T02:46:10;10.20;99.90
54832;DHT22;40730;53.068;6.572;2023-08-31T02:48:35;10.20;99.90
54832;DHT22;40730;53.068;6.572;2023-08-31T02:51:01;10.20;99.90
54832;DHT22;40730;53.068;6.572;2023-08-31T02:53:31;10.30;99.90
54832;DHT22;40730;53.068;6.572;2023-08-31T02:55:57;10.20;99.90
54832;DHT22;40730;53.068;6.572;2023-08-31T02:58:22;10.30;99.90
54832;DHT22;40730;53.068;6.572;2023-08-31T03:00:48;10.20;99.90
54832;DHT22;40730;53.068;6.572;2023-08-31T03:03:15;10.20;99.90
54832;DHT22;40730;53.068;6.572;2023-08-31T03:05:41;10.20;99.90
54832;DHT22;40730;53.068;6.572;2023-08-31T03:08:07;10.30;99.90
54832;DHT22;40730;53.068;6.572;2023-08-31T03:10:32;10.20;99.90
54832;DHT22;40730;53.068;6.572;2023-08-31T03:12:58;10.30;99.90
54832;DHT22;40730;53.068;6.572;2023-08-31T03:15:24;10.30;99.90
54832;DHT22;40730;53.068;6.572;2023-08-31T03:17:49;10.30;99.90
54832;DHT22;40730;53.068;6.572;2023-08-31T03:20:15;10.20;99.90
54832;DHT22;40730;53.068;6.572;2023-08-31T03:22:41;10.20;99.90
54832;DHT22;40730;53.068;6.572;2023-08-31T03:25:07;10.30;99.90
54832;DHT22;40730;53.068;6.572;2023-08-31T03:27:33;10.30;99.90
54832;DHT22;40730;53.068;6.572;2023-08-31T03:29:58;10.30;99.90
54832;DHT22;40730;53.068;6.572;2023-08-31T03:32:24;10.30;99.90
54832;DHT22;40730;53.068;6.572;2023-08-31T03:34:49;10.30;99.90
54832;DHT22;40730;53.068;6.572;2023-08-31T03:37:16;10.30;99.90
54832;DHT22;40730;53.068;6.572;2023-08-31T03:39:41;10.40;99.90
54832;DHT22;40730;53.068;6.572;2023-08-31T03:42:08;10.40;99.90
54832;DHT22;40730;53.068;6.572;2023-08-31T03:44:35;10.40;99.90
54832;DHT22;40730;53.068;6.572;2023-08-31T03:47:02;10.50;99.90
54832;DHT22;40730;53.068;6.572;2023-08-31T03:49:28;10.50;99.90
54832;DHT22;40730;53.068;6.572;2023-08-31T03:51:54;10.50;99.90
54832;DHT22;40730;53.068;6.572;2023-08-31T03:54:20;10.60;99.90
54832;DHT22;40730;53.068;6.572;2023-08-31T03:56:45;10.60;99.90
54832;DHT22;40730;53.068;6.572;2023-08-31T03:59:12;10.60;99.90
54832;DHT22;40730;53.068;6.572;2023-08-31T04:01:38;10.60;99.90
54832;DHT22;40730;53.068;6.572;2023-08-31T04:04:04;10.60;99.90
54832;DHT22;40730;53.068;6.572;2023-08-31T04:06:30;10.60;99.90
54832;DHT22;40730;53.068;6.572;2023-08-31T04:08:56;10.60;99.90
54832;DHT22;40730;53.068;6.572;2023-08-31T04:11:22;10.40;99.90
54832;DHT22;40730;53.068;6.572;2023-08-31T04:13:48;10.60;99.90
54832;DHT22;40730;53.068;6.572;2023-08-31T04:16:13;10.60;99.90
54832;DHT22;40730;53.068;6.572;2023-08-31T04:18:39;10.60;99.90
54832;DHT22;40730;53.068;6.572;2023-08-31T04:21:05;10.60;99.90
54832;DHT22;40730;53.068;6.572;2023-08-31T04:23:31;10.60;99.90
54832;DHT22;40730;53.068;6.572;2023-08-31T04:25:57;10.60;99.90
54832;DHT22;40730;53.068;6.572;2023-08-31T04:28:23;10.70;99.90
54832;DHT22;40730;53.068;6.572;2023-08-31T04:30:49;10.60;99.90
54832;DHT22;40730;53.068;6.572;2023-08-31T04:33:15;10.70;99.90
54832;DHT22;40730;53.068;6.572;2023-08-31T04:35:41;10.70;99.90
54832;DHT22;40730;53.068;6.572;2023-08-31T04:38:07;10.70;99.90
54832;DHT22;40730;53.068;6.572;2023-08-31T04:40:33;10.60;99.90
54832;DHT22;40730;53.068;6.572;2023-08-31T04:42:58;10.60;99.90
54832;DHT22;40730;53.068;6.572;2023-08-31T04:45:24;10.60;99.90
54832;DHT22;40730;53.068;6.572;2023-08-31T04:47:50;10.50;99.90
54832;DHT22;40730;53.068;6.572;2023-08-31T04:50:17;10.60;99.90
54832;DHT22;40730;53.068;6.572;2023-08-31T04:52:42;10.50;99.90
54832;DHT22;40730;53.068;6.572;2023-08-31T04:55:08;10.50;99.90
54832;DHT22;40730;53.068;6.572;2023-08-31T04:57:34;10.40;99.90
54832;DHT22;40730;53.068;6.572;2023-08-31T05:00:00;10.40;99.90
54832;DHT22;40730;53.068;6.572;2023-08-31T05:02:27;10.50;99.90
54832;DHT22;40730;53.068;6.572;2023-08-31T05:04:53;10.40;99.90
54832;DHT22;40730;53.068;6.572;2023-08-31T05:07:18;10.30;99.90
54832;DHT22;40730;53.068;6.572;2023-08-31T05:09:44;10.30;99.90
54832;DHT22;40730;53.068;6.572;2023-08-31T05:12:09;10.30;99.90
54832;DHT22;40730;53.068;6.572;2023-08-31T05:14:35;10.30;99.90
54832;DHT22;40730;53.068;6.572;2023-08-31T05:17:06;10.30;99.90
54832;DHT22;40730;53.068;6.572;2023-08-31T05:19:31;10.30;99.90
54832;DHT22;40730;53.068;6.572;2023-08-31T05:21:57;10.40;99.90
54832;DHT22;40730;53.068;6.572;2023-08-31T05:24:23;10.30;99.90
54832;DHT22;40730;53.068;6.572;2023-08-31T05:26:49;10.40;99.90
54832;DHT22;40730;53.068;6.572;2023-08-31T05:29:15;10.40;99.90
54832;DHT22;40730;53.068;6.572;2023-08-31T05:31:40;10.40;99.90
54832;DHT22;40730;53.068;6.572;2023-08-31T05:34:06;10.40;99.90
54832;DHT22;40730;53.068;6.572;2023-08-31T05:36:32;10.50;99.90
54832;DHT22;40730;53.068;6.572;2023-08-31T05:38:57;10.50;99.90
54832;DHT22;40730;53.068;6.572;2023-08-31T05:41:23;10.60;99.90
54832;DHT22;40730;53.068;6.572;2023-08-31T05:43:50;10.60;99.90
54832;DHT22;40730;53.068;6.572;2023-08-31T05:46:15;10.70;99.90
54832;DHT22;40730;53.068;6.572;2023-08-31T05:48:41;10.70;99.90
54832;DHT22;40730;53.068;6.572;2023-08-31T05:51:07;10.80;99.90
54832;DHT22;40730;53.068;6.572;2023-08-31T05:53:33;11.00;99.90
54832;DHT22;40730;53.068;6.572;2023-08-31T05:55:59;10.90;99.90
54832;DHT22;40730;53.068;6.572;2023-08-31T05:58:33;11.00;99.90
54832;DHT22;40730;53.068;6.572;2023-08-31T06:00:59;11.10;99.90
54832;DHT22;40730;53.068;6.572;2023-08-31T06:03:25;11.20;99.90
54832;DHT22;40730;53.068;6.572;2023-08-31T06:05:51;11.20;99.90
54832;DHT22;40730;53.068;6.572;2023-08-31T06:08:17;11.30;99.90
54832;DHT22;40730;53.068;6.572;2023-08-31T06:10:42;11.40;99.90
54832;DHT22;40730;53.068;6.572;2023-08-31T06:13:08;11.50;99.90
54832;DHT22;40730;53.068;6.572;2023-08-31T06:15:34;11.60;99.90
54832;DHT22;40730;53.068;6.572;2023-08-31T06:18:00;11.60;99.90
54832;DHT22;40730;53.068;6.572;2023-08-31T06:20:25;11.70;99.90
54832;DHT22;40730;53.068;6.572;2023-08-31T06:22:51;12.30;99.90
54832;DHT22;40730;53.068;6.572;2023-08-31T06:25:17;12.00;99.90
54832;DHT22;40730;53.068;6.572;2023-08-31T06:27:44;12.10;99.90
54832;DHT22;40730;53.068;6.572;2023-08-31T06:30:10;12.30;99.90
54832;DHT22;40730;53.068;6.572;2023-08-31T06:32:47;12.40;99.90
54832;DHT22;40730;53.068;6.572;2023-08-31T06:35:14;12.50;99.90
54832;DHT22;40730;53.068;6.572;2023-08-31T06:37:41;12.60;99.90
54832;DHT22;40730;53.068;6.572;2023-08-31T06:40:07;12.70;99.90
54832;DHT22;40730;53.068;6.572;2023-08-31T06:42:36;12.90;99.90
54832;DHT22;40730;53.068;6.572;2023-08-31T06:45:07;12.90;99.90
54832;DHT22;40730;53.068;6.572;2023-08-31T06:47:33;13.10;99.90
54832;DHT22;40730;53.068;6.572;2023-08-31T06:49:59;13.20;99.90
54832;DHT22;40730;53.068;6.572;2023-08-31T06:52:28;13.20;99.90
54832;DHT22;40730;53.068;6.572;2023-08-31T06:54:54;13.30;99.90
54832;DHT22;40730;53.068;6.572;2023-08-31T06:57:23;13.40;99.90
54832;DHT22;40730;53.068;6.572;2023-08-31T06:59:49;13.50;99.90
54832;DHT22;40730;53.068;6.572;2023-08-31T07:02:14;13.60;99.90
54832;DHT22;40730;53.068;6.572;2023-08-31T07:04:40;13.70;99.90
54832;DHT22;40730;53.068;6.572;2023-08-31T07:07:06;13.80;99.90
54832;DHT22;40730;53.068;6.572;2023-08-31T07:09:32;14.00;99.90
54832;DHT22;40730;53.068;6.572;2023-08-31T07:11:58;14.10;99.90
54832;DHT22;40730;53.068;6.572;2023-08-31T07:14:23;14.30;99.90
54832;DHT22;40730;53.068;6.572;2023-08-31T07:16:49;14.40;99.90
54832;DHT22;40730;53.068;6.572;2023-08-31T07:19:15;14.60;99.90
54832;DHT22;40730;53.068;6.572;2023-08-31T07:21:41;14.80;99.90
54832;DHT22;40730;53.068;6.572;2023-08-31T07:24:07;15.00;99.90
54832;DHT22;40730;53.068;6.572;2023-08-31T07:26:32;15.10;99.90
54832;DHT22;40730;53.068;6.572;2023-08-31T07:29:00;15.20;99.90
54832;DHT22;40730;53.068;6.572;2023-08-31T07:31:27;15.30;99.90
54832;DHT22;40730;53.068;6.572;2023-08-31T07:33:52;15.40;99.90
54832;DHT22;40730;53.068;6.572;2023-08-31T07:36:18;15.50;99.90
54832;DHT22;40730;53.068;6.572;2023-08-31T07:38:43;15.60;99.90
54832;DHT22;40730;53.068;6.572;2023-08-31T07:41:09;15.80;99.90
54832;DHT22;40730;53.068;6.572;2023-08-31T07:43:35;15.90;99.90
54832;DHT22;40730;53.068;6.572;2023-08-31T07:46:00;16.10;99.90
54832;DHT22;40730;53.068;6.572;2023-08-31T07:48:26;16.20;99.90
54832;DHT22;40730;53.068;6.572;2023-08-31T07:50:51;16.40;99.90
54832;DHT22;40730;53.068;6.572;2023-08-31T07:53:17;16.50;99.90
54832;DHT22;40730;53.068;6.572;2023-08-31T07:55:51;16.60;99.90
54832;DHT22;40730;53.068;6.572;2023-08-31T07:58:17;16.80;99.90
54832;DHT22;40730;53.068;6.572;2023-08-31T08:00:43;16.90;99.90
54832;DHT22;40730;53.068;6.572;2023-08-31T08:03:08;16.90;99.90
54832;DHT22;40730;53.068;6.572;2023-08-31T08:05:34;17.00;99.90
54832;DHT22;40730;53.068;6.572;2023-08-31T08:08:00;17.10;99.90
54832;DHT22;40730;53.068;6.572;2023-08-31T08:10:25;17.20;99.90
54832;DHT22;40730;53.068;6.572;2023-08-31T08:12:51;17.20;99.90
54832;DHT22;40730;53.068;6.572;2023-08-31T08:15:17;17.20;99.90
54832;DHT22;40730;53.068;6.572;2023-08-31T08:17:43;17.30;99.90
54832;DHT22;40730;53.068;6.572;2023-08-31T08:20:09;17.40;99.90
54832;DHT22;40730;53.068;6.572;2023-08-31T08:22:34;17.50;99.90
54832;DHT22;40730;53.068;6.572;2023-08-31T08:25:01;17.60;99.90
54832;DHT22;40730;53.068;6.572;2023-08-31T08:27:28;17.70;99.90
54832;DHT22;40730;53.068;6.572;2023-08-31T08:29:53;17.70;99.90
54832;DHT22;40730;53.068;6.572;2023-08-31T08:32:19;17.80;99.90
54832;DHT22;40730;53.068;6.572;2023-08-31T08:34:45;17.90;99.90
54832;DHT22;40730;53.068;6.572;2023-08-31T08:37:10;18.10;99.90
54832;DHT22;40730;53.068;6.572;2023-08-31T08:39:36;18.30;99.90
54832;DHT22;40730;53.068;6.572;2023-08-31T08:42:04;18.50;99.90
54832;DHT22;40730;53.068;6.572;2023-08-31T08:44:33;18.70;99.90
54832;DHT22;40730;53.068;6.572;2023-08-31T08:47:02;19.00;99.90
54832;DHT22;40730;53.068;6.572;2023-08-31T08:49:30;19.10;99.90
54832;DHT22;40730;53.068;6.572;2023-08-31T08:51:58;19.20;99.90
54832;DHT22;40730;53.068;6.572;2023-08-31T08:54:24;19.10;99.90
54832;DHT22;40730;53.068;6.572;2023-08-31T08:56:50;19.00;99.90
54832;DHT22;40730;53.068;6.572;2023-08-31T08:59:16;19.20;99.90
54832;DHT22;40730;53.068;6.572;2023-08-31T09:01:42;19.10;99.90
54832;DHT22;40730;53.068;6.572;2023-08-31T09:04:09;19.00;99.90
54832;DHT22;40730;53.068;6.572;2023-08-31T09:06:35;19.00;99.90
54832;DHT22;40730;53.068;6.572;2023-08-31T09:09:01;18.70;99.90
54832;DHT22;40730;53.068;6.572;2023-08-31T09:11:26;18.50;99.90
54832;DHT22;40730;53.068;6.572;2023-08-31T09:13:52;18.10;99.90
54832;DHT22;40730;53.068;6.572;2023-08-31T09:16:30;17.90;99.90
54832;DHT22;40730;53.068;6.572;2023-08-31T09:18:57;17.60;99.90
54832;DHT22;40730;53.068;6.572;2023-08-31T09:21:36;16.60;99.90
54832;DHT22;40730;53.068;6.572;2023-08-31T09:24:04;15.30;99.90
54832;DHT22;40730;53.068;6.572;2023-08-31T09:26:37;14.30;99.90
54832;DHT22;40730;53.068;6.572;2023-08-31T09:29:05;13.80;99.90
54832;DHT22;40730;53.068;6.572;2023-08-31T09:31:30;13.60;99.90
54832;DHT22;40730;53.068;6.572;2023-08-31T09:33:56;13.40;99.90
54832;DHT22;40730;53.068;6.572;2023-08-31T09:36:22;13.20;99.90
54832;DHT22;40730;53.068;6.572;2023-08-31T09:38:48;13.40;99.90
54832;DHT22;40730;53.068;6.572;2023-08-31T09:41:14;14.20;99.90
54832;DHT22;40730;53.068;6.572;2023-08-31T09:43:41;15.20;99.90
54832;DHT22;40730;53.068;6.572;2023-08-31T09:46:08;16.10;99.90
54832;DHT22;40730;53.068;6.572;2023-08-31T09:48:35;16.90;99.90
54832;DHT22;40730;53.068;6.572;2023-08-31T09:51:04;17.60;99.90
54832;DHT22;40730;53.068;6.572;2023-08-31T09:53:31;18.20;99.90
54832;DHT22;40730;53.068;6.572;2023-08-31T09:55:57;18.70;99.90
54832;DHT22;40730;53.068;6.572;2023-08-31T09:58:23;19.10;99.90
54832;DHT22;40730;53.068;6.572;2023-08-31T10:00:50;19.50;99.90
54832;DHT22;40730;53.068;6.572;2023-08-31T10:03:16;20.00;99.90
54832;DHT22;40730;53.068;6.572;2023-08-31T10:05:47;20.40;99.90
54832;DHT22;40730;53.068;6.572;2023-08-31T10:08:12;20.20;99.90
54832;DHT22;40730;53.068;6.572;2023-08-31T10:10:40;19.70;99.90
54832;DHT22;40730;53.068;6.572;2023-08-31T10:13:06;19.10;99.90
54832;DHT22;40730;53.068;6.572;2023-08-31T10:15:33;18.60;99.90
54832;DHT22;40730;53.068;6.572;2023-08-31T10:18:00;18.30;99.90
54832;DHT22;40730;53.068;6.572;2023-08-31T10:20:26;18.00;99.90
54832;DHT22;40730;53.068;6.572;2023-08-31T10:23:02;17.50;99.90
54832;DHT22;40730;53.068;6.572;2023-08-31T10:28:26;17.40;99.90
54832;DHT22;40730;53.068;6.572;2023-08-31T10:31:07;18.40;99.90
54832;DHT22;40730;53.068;6.572;2023-08-31T10:33:40;19.40;99.90
54832;DHT22;40730;53.068;6.572;2023-08-31T10:36:17;19.90;99.90
54832;DHT22;40730;53.068;6.572;2023-08-31T10:41:21;19.00;99.90
54832;DHT22;40730;53.068;6.572;2023-08-31T10:51:34;18.90;99.90
54832;DHT22;40730;53.068;6.572;2023-08-31T10:59:17;18.60;99.90
54832;DHT22;40730;53.068;6.572;2023-08-31T11:01:56;19.70;99.90
54832;DHT22;40730;53.068;6.572;2023-08-31T11:04:24;20.70;99.90
54832;DHT22;40730;53.068;6.572;2023-08-31T11:07:11;21.20;99.90
54832;DHT22;40730;53.068;6.572;2023-08-31T11:09:35;21.40;99.90
54832;DHT22;40730;53.068;6.572;2023-08-31T11:12:02;21.90;99.90
54832;DHT22;40730;53.068;6.572;2023-08-31T11:14:28;22.20;99.90
54832;DHT22;40730;53.068;6.572;2023-08-31T11:16:55;22.50;99.90
54832;DHT22;40730;53.068;6.572;2023-08-31T11:19:20;22.80;99.90
54832;DHT22;40730;53.068;6.572;2023-08-31T11:21:46;22.80;99.90
54832;DHT22;40730;53.068;6.572;2023-08-31T11:24:12;22.80;99.90
54832;DHT22;40730;53.068;6.572;2023-08-31T11:26:38;23.00;99.90
54832;DHT22;40730;53.068;6.572;2023-08-31T11:29:07;23.00;99.90
54832;DHT22;40730;53.068;6.572;2023-08-31T11:31:37;22.70;99.90
54832;DHT22;40730;53.068;6.572;2023-08-31T11:34:05;22.50;99.90
54832;DHT22;40730;53.068;6.572;2023-08-31T11:36:31;22.60;99.90
54832;DHT22;40730;53.068;6.572;2023-08-31T11:38:57;23.00;99.90
54832;DHT22;40730;53.068;6.572;2023-08-31T11:41:23;23.10;99.90
54832;DHT22;40730;53.068;6.572;2023-08-31T11:43:49;22.70;99.90
54832;DHT22;40730;53.068;6.572;2023-08-31T11:46:17;22.00;99.90
54832;DHT22;40730;53.068;6.572;2023-08-31T11:48:44;21.80;99.90
54832;DHT22;40730;53.068;6.572;2023-08-31T11:51:10;21.80;99.90
54832;DHT22;40730;53.068;6.572;2023-08-31T11:53:37;21.70;99.90
54832;DHT22;40730;53.068;6.572;2023-08-31T11:56:03;22.00;99.90
54832;DHT22;40730;53.068;6.572;2023-08-31T11:58:28;22.40;99.90
54832;DHT22;40730;53.068;6.572;2023-08-31T12:00:56;22.80;98.70
54832;DHT22;40730;53.068;6.572;2023-08-31T12:03:22;23.10;99.30
54832;DHT22;40730;53.068;6.572;2023-08-31T12:05:51;23.30;99.30
54832;DHT22;40730;53.068;6.572;2023-08-31T12:08:25;23.50;98.20
54832;DHT22;40730;53.068;6.572;2023-08-31T12:10:51;23.20;99.00
54832;DHT22;40730;53.068;6.572;2023-08-31T12:13:17;22.50;99.70
54832;DHT22;40730;53.068;6.572;2023-08-31T12:15:43;21.60;99.90
54832;DHT22;40730;53.068;6.572;2023-08-31T12:18:12;21.00;99.90
54832;DHT22;40730;53.068;6.572;2023-08-31T12:20:50;20.30;99.90
54832;DHT22;40730;53.068;6.572;2023-08-31T12:23:19;19.60;99.90
54832;DHT22;40730;53.068;6.572;2023-08-31T12:25:48;18.80;99.90
54832;DHT22;40730;53.068;6.572;2023-08-31T12:28:14;18.30;99.90
54832;DHT22;40730;53.068;6.572;2023-08-31T12:30:42;17.80;99.90
54832;DHT22;40730;53.068;6.572;2023-08-31T12:33:11;17.40;99.90
54832;DHT22;40730;53.068;6.572;2023-08-31T12:35:37;17.20;99.90
54832;DHT22;40730;53.068;6.572;2023-08-31T12:38:03;17.00;99.90
54832;DHT22;40730;53.068;6.572;2023-08-31T12:40:29;16.90;99.90
54832;DHT22;40730;53.068;6.572;2023-08-31T12:42:55;16.80;99.90
54832;DHT22;40730;53.068;6.572;2023-08-31T12:45:20;16.90;99.90
54832;DHT22;40730;53.068;6.572;2023-08-31T12:47:46;17.00;99.90
54832;DHT22;40730;53.068;6.572;2023-08-31T12:50:13;17.20;99.90
54832;DHT22;40730;53.068;6.572;2023-08-31T12:52:39;17.60;99.90
54832;DHT22;40730;53.068;6.572;2023-08-31T12:55:10;17.90;99.90
54832;DHT22;40730;53.068;6.572;2023-08-31T12:57:36;18.10;99.90
54832;DHT22;40730;53.068;6.572;2023-08-31T13:00:02;18.10;99.90
54832;DHT22;40730;53.068;6.572;2023-08-31T13:02:30;18.20;99.90
54832;DHT22;40730;53.068;6.572;2023-08-31T13:04:56;18.40;99.90
54832;DHT22;40730;53.068;6.572;2023-08-31T13:07:21;19.00;99.90
54832;DHT22;40730;53.068;6.572;2023-08-31T13:09:47;19.60;99.90
54832;DHT22;40730;53.068;6.572;2023-08-31T13:12:12;20.00;99.90
54832;DHT22;40730;53.068;6.572;2023-08-31T13:14:38;20.80;99.90
54832;DHT22;40730;53.068;6.572;2023-08-31T13:17:04;21.60;99.90
54832;DHT22;40730;53.068;6.572;2023-08-31T13:19:31;22.30;99.90
54832;DHT22;40730;53.068;6.572;2023-08-31T13:21:57;22.70;99.90
54832;DHT22;40730;53.068;6.572;2023-08-31T13:24:22;22.90;99.90
54832;DHT22;40730;53.068;6.572;2023-08-31T13:26:48;22.80;99.90
54832;DHT22;40730;53.068;6.572;2023-08-31T13:29:15;22.50;99.90
54832;DHT22;40730;53.068;6.572;2023-08-31T13:31:40;22.00;99.90
54832;DHT22;40730;53.068;6.572;2023-08-31T13:34:06;21.40;99.90
54832;DHT22;40730;53.068;6.572;2023-08-31T13:36:36;20.80;99.90
54832;DHT22;40730;53.068;6.572;2023-08-31T13:39:01;20.40;99.90
54832;DHT22;40730;53.068;6.572;2023-08-31T13:41:28;19.90;99.90
54832;DHT22;40730;53.068;6.572;2023-08-31T13:43:54;19.50;99.90
54832;DHT22;40730;53.068;6.572;2023-08-31T13:46:19;19.50;99.90
54832;DHT22;40730;53.068;6.572;2023-08-31T13:48:45;19.70;99.90
54832;DHT22;40730;53.068;6.572;2023-08-31T13:51:11;19.70;99.90
54832;DHT22;40730;53.068;6.572;2023-08-31T13:53:36;19.60;99.90
54832;DHT22;40730;53.068;6.572;2023-08-31T13:56:02;19.50;99.90
54832;DHT22;40730;53.068;6.572;2023-08-31T13:58:28;19.40;99.90
54832;DHT22;40730;53.068;6.572;2023-08-31T14:00:53;19.40;99.90
54832;DHT22;40730;53.068;6.572;2023-08-31T14:03:19;19.30;99.90
54832;DHT22;40730;53.068;6.572;2023-08-31T14:05:48;19.30;99.90
54832;DHT22;40730;53.068;6.572;2023-08-31T14:08:14;19.30;99.90
54832;DHT22;40730;53.068;6.572;2023-08-31T14:10:40;19.20;99.90
54832;DHT22;40730;53.068;6.572;2023-08-31T14:13:06;19.10;99.90
54832;DHT22;40730;53.068;6.572;2023-08-31T14:15:32;18.80;99.90
54832;DHT22;40730;53.068;6.572;2023-08-31T14:17:58;18.70;99.90
54832;DHT22;40730;53.068;6.572;2023-08-31T14:20:24;18.60;99.90
54832;DHT22;40730;53.068;6.572;2023-08-31T14:22:50;18.50;99.90
54832;DHT22;40730;53.068;6.572;2023-08-31T14:25:16;18.70;99.90
54832;DHT22;40730;53.068;6.572;2023-08-31T14:27:42;18.70;99.90
54832;DHT22;40730;53.068;6.572;2023-08-31T14:30:08;18.50;99.90
54832;DHT22;40730;53.068;6.572;2023-08-31T14:32:34;18.40;99.90
54832;DHT22;40730;53.068;6.572;2023-08-31T14:34:59;18.20;99.90
54832;DHT22;40730;53.068;6.572;2023-08-31T14:37:25;18.20;99.90
54832;DHT22;40730;53.068;6.572;2023-08-31T14:39:51;18.20;99.90
54832;DHT22;40730;53.068;6.572;2023-08-31T14:42:17;18.20;99.90
54832;DHT22;40730;53.068;6.572;2023-08-31T14:44:46;18.20;99.90
54832;DHT22;40730;53.068;6.572;2023-08-31T14:47:12;18.10;99.90
54832;DHT22;40730;53.068;6.572;2023-08-31T14:49:39;18.10;99.90
54832;DHT22;40730;53.068;6.572;2023-08-31T14:52:05;18.10;99.90
54832;DHT22;40730;53.068;6.572;2023-08-31T14:54:32;18.10;99.90
54832;DHT22;40730;53.068;6.572;2023-08-31T14:56:58;18.10;99.90
54832;DHT22;40730;53.068;6.572;2023-08-31T14:59:24;18.20;99.90
54832;DHT22;40730;53.068;6.572;2023-08-31T15:01:50;18.20;99.90
54832;DHT22;40730;53.068;6.572;2023-08-31T15:04:15;18.20;99.90
54832;DHT22;40730;53.068;6.572;2023-08-31T15:06:41;18.20;99.90
54832;DHT22;40730;53.068;6.572;2023-08-31T15:09:07;18.20;99.90
54832;DHT22;40730;53.068;6.572;2023-08-31T15:11:32;18.30;99.90
54832;DHT22;40730;53.068;6.572;2023-08-31T15:13:58;18.30;99.90
54832;DHT22;40730;53.068;6.572;2023-08-31T15:16:24;18.30;99.90
54832;DHT22;40730;53.068;6.572;2023-08-31T15:18:50;18.20;99.90
54832;DHT22;40730;53.068;6.572;2023-08-31T15:21:16;18.20;99.90
54832;DHT22;40730;53.068;6.572;2023-08-31T15:23:43;18.20;99.90
54832;DHT22;40730;53.068;6.572;2023-08-31T15:26:09;18.20;99.90
54832;DHT22;40730;53.068;6.572;2023-08-31T15:28:35;18.20;99.90
54832;DHT22;40730;53.068;6.572;2023-08-31T15:31:01;18.10;99.90
54832;DHT22;40730;53.068;6.572;2023-08-31T15:33:26;18.10;99.90
54832;DHT22;40730;53.068;6.572;2023-08-31T15:36:02;18.10;99.90
54832;DHT22;40730;53.068;6.572;2023-08-31T15:38:29;18.10;99.90
54832;DHT22;40730;53.068;6.572;2023-08-31T15:40:55;18.10;99.90
54832;DHT22;40730;53.068;6.572;2023-08-31T15:43:21;18.10;99.90
54832;DHT22;40730;53.068;6.572;2023-08-31T15:45:47;18.00;99.90
54832;DHT22;40730;53.068;6.572;2023-08-31T15:48:13;18.10;99.90
54832;DHT22;40730;53.068;6.572;2023-08-31T15:50:39;18.20;99.90
54832;DHT22;40730;53.068;6.572;2023-08-31T15:53:05;18.10;99.90